Time;durP1;ratioP1;P1;durP2;ratioP2;P2;SDS_P1;SDS_P2;PMS_P1;PMS_P2;Temp;Humidity;BMP_temperature;BMP_pressure;BME280_temperature;BME280_humidity;BME280_pressure;Samples;Min_cycle;Max_cycle;Signal;HPM_P1;HPM_P2
2022/06/30 00:00:58;;;;;;;14.98;13.23;;;;;;;16.24;94.47;95809.56;2055719;28;20062;-62
2022/06/30 00:01:59;;;;;;;17.48;12.65;;;;;;;16.24;93.10;95804.31;2051484;28;20057;-62
2022/06/30 00:03:00;;;;;;;16.48;12.88;;;;;;;16.26;93.35;95804.22;2040961;28;20512;-62
2022/06/30 00:04:01;;;;;;;14.05;12.55;;;;;;;16.28;93.35;95807.59;2056127;28;20057;-62
2022/06/30 00:05:03;;;;;;;15.05;12.57;;;;;;;16.29;92.43;95810.06;2068940;28;20050;-61
2022/06/30 00:06:05;;;;;;;14.65;12.18;;;;;;;16.31;92.64;95804.72;2056297;28;20073;-62
2022/06/30 00:07:06;;;;;;;14.40;12.32;;;;;;;16.33;93.18;95800.19;2055746;28;20053;-62
2022/06/30 00:08:07;;;;;;;14.30;12.15;;;;;;;16.38;92.88;95802.50;2055370;28;20043;-62
2022/06/30 00:09:08;;;;;;;14.23;12.82;;;;;;;16.38;92.24;95802.50;2042678;29;20567;-61
2022/06/30 00:10:10;;;;;;;15.25;12.52;;;;;;;16.32;92.86;95801.16;2040365;29;20498;-63
2022/06/30 00:11:11;;;;;;;16.67;12.32;;;;;;;16.21;92.94;95798.50;2050431;28;20055;-62
2022/06/30 00:12:12;;;;;;;16.10;13.82;;;;;;;16.21;93.17;95801.09;2055996;28;20047;-62
2022/06/30 00:13:13;;;;;;;14.23;12.73;;;;;;;16.20;93.29;95799.41;2056607;28;20055;-62
2022/06/30 00:14:14;;;;;;;16.80;13.80;;;;;;;16.16;93.51;95796.19;2048554;28;20058;-62
2022/06/30 00:15:16;;;;;;;18.70;13.35;;;;;;;16.16;93.55;95796.19;2047737;28;20513;-62
2022/06/30 00:16:17;;;;;;;14.65;13.15;;;;;;;16.19;93.84;95795.97;2056139;28;20058;-63
2022/06/30 00:17:18;;;;;;;15.52;13.82;;;;;;;16.19;94.43;95795.97;2048004;28;20047;-61
2022/06/30 00:18:19;;;;;;;15.60;13.98;;;;;;;16.21;94.31;95795.88;2064000;28;20057;-63
2022/06/30 00:19:21;;;;;;;15.90;13.68;;;;;;;16.16;95.07;95795.38;2056308;28;20070;-63
2022/06/30 00:20:22;;;;;;;14.98;12.68;;;;;;;16.07;94.66;95797.69;2056258;28;20051;-63
2022/06/30 00:21:23;;;;;;;15.40;13.80;;;;;;;16.17;95.25;95797.03;2064630;28;20517;-64
2022/06/30 00:22:25;;;;;;;17.52;14.05;;;;;;;16.16;94.86;95803.22;2063968;28;20046;-63
2022/06/30 00:23:26;;;;;;;17.52;13.98;;;;;;;16.13;95.47;95798.22;2047983;28;20047;-63
2022/06/30 00:24:27;;;;;;;17.73;14.60;;;;;;;16.09;95.55;95802.81;2056446;28;20469;-63
2022/06/30 00:25:29;;;;;;;17.85;14.88;;;;;;;16.08;94.98;95798.53;2047946;28;20425;-63
2022/06/30 00:26:30;;;;;;;15.52;13.82;;;;;;;16.05;95.02;95798.75;2055460;28;20524;-62
2022/06/30 00:27:31;;;;;;;17.83;13.82;;;;;;;16.08;95.08;95799.38;2056132;28;20038;-62
2022/06/30 00:28:32;;;;;;;14.38;12.70;;;;;;;16.07;94.42;95800.31;2056482;28;20409;-63
2022/06/30 00:29:34;;;;;;;15.65;13.77;;;;;;;16.13;95.06;95796.41;2072665;28;20046;-63
2022/06/30 00:30:35;;;;;;;13.63;12.25;;;;;;;16.14;94.35;95797.25;2056402;28;20042;-62
2022/06/30 00:31:36;;;;;;;17.80;13.27;;;;;;;16.13;93.92;95795.59;2055997;28;20061;-63
2022/06/30 00:32:37;;;;;;;17.08;12.98;;;;;;;16.10;94.35;95781.75;2047655;28;20043;-63
2022/06/30 00:33:38;;;;;;;17.58;13.75;;;;;;;16.08;93.93;95788.88;2048402;28;20047;-62
2022/06/30 00:34:40;;;;;;;17.05;13.45;;;;;;;16.03;94.39;95785.75;2063957;28;20053;-63
2022/06/30 00:35:41;;;;;;;15.68;12.60;;;;;;;15.97;94.26;95786.22;2056249;28;20054;-61
2022/06/30 00:36:43;;;;;;;16.50;14.20;;;;;;;15.95;95.08;95792.50;2055970;28;20463;-61
2022/06/30 00:37:45;;;;;;;16.08;13.70;;;;;;;15.94;94.19;95789.06;2063993;28;20054;-61
2022/06/30 00:38:46;;;;;;;16.33;14.40;;;;;;;15.88;95.12;95779.84;2063777;28;20073;-61
2022/06/30 00:39:47;;;;;;;18.38;14.43;;;;;;;15.84;95.27;95782.81;2048030;28;20532;-60
2022/06/30 00:40:48;;;;;;;17.13;14.95;;;;;;;15.80;94.96;95778.75;2048918;28;20047;-61
2022/06/30 00:41:50;;;;;;;18.48;15.18;;;;;;;15.82;94.66;95774.22;2056672;28;20496;-61
2022/06/30 00:42:51;;;;;;;16.00;14.40;;;;;;;15.78;95.18;95775.41;2049949;28;20110;-60
2022/06/30 00:43:52;;;;;;;17.63;13.90;;;;;;;15.82;95.57;95777.69;2057982;28;20448;-61
2022/06/30 00:44:53;;;;;;;19.00;15.20;;;;;;;15.82;95.18;95774.22;2065261;28;20042;-61
2022/06/30 00:45:55;;;;;;;18.17;15.25;;;;;;;15.78;95.40;95776.22;2049809;28;20541;-60
2022/06/30 00:46:57;;;;;;;18.15;15.40;;;;;;;15.78;95.48;95780.63;2051819;28;20062;-60
2022/06/30 00:47:59;;;;;;;20.48;14.65;;;;;;;15.73;95.84;95772.25;2049454;28;20051;-60
2022/06/30 00:49:00;;;;;;;20.38;16.40;;;;;;;15.71;95.87;95769.75;2057022;28;20436;-61
2022/06/30 00:50:01;;;;;;;18.48;16.35;;;;;;;15.69;95.88;95776.03;2049087;28;20042;-61
2022/06/30 00:51:05;;;;;;;18.23;16.27;;;;;;;15.68;96.38;95767.31;2057590;28;20448;-62
2022/06/30 00:52:09;;;;;;;17.05;15.25;;;;;;;15.58;96.35;95753.19;2050151;28;20051;-61
2022/06/30 00:53:10;;;;;;;19.33;16.35;;;;;;;15.59;96.75;95762.75;2050494;28;20062;-60
2022/06/30 00:54:11;;;;;;;17.13;14.10;;;;;;;15.54;96.32;95768.28;2058306;28;20055;-61
2022/06/30 00:55:13;;;;;;;17.88;15.90;;;;;;;15.59;96.50;95763.56;2073466;28;20046;-61
2022/06/30 00:56:15;;;;;;;16.83;15.02;;;;;;;15.61;96.75;95766.06;2056166;28;20051;-61
2022/06/30 00:57:16;;;;;;;20.23;16.27;;;;;;;15.65;96.53;95763.13;2052737;28;20046;-60
2022/06/30 00:58:18;;;;;;;17.33;15.40;;;;;;;15.68;96.66;95762.09;2049746;28;20047;-61
2022/06/30 00:59:19;;;;;;;17.60;15.55;;;;;;;15.72;96.95;95760.13;2050424;28;20055;-61
2022/06/30 01:00:20;;;;;;;19.15;15.57;;;;;;;15.65;96.36;95750.03;2034598;28;20494;-60
2022/06/30 01:01:22;;;;;;;23.40;16.05;;;;;;;15.71;96.78;95761.06;2038227;28;20062;-59
2022/06/30 01:02:23;;;;;;;20.75;16.20;;;;;;;15.69;96.20;95760.31;2057774;28;20054;-58
2022/06/30 01:03:25;;;;;;;19.88;16.38;;;;;;;15.66;96.83;95758.72;2064453;28;20419;-60
2022/06/30 01:04:26;;;;;;;16.67;14.27;;;;;;;15.60;96.70;95744.28;2046916;28;20055;-60
2022/06/30 01:05:27;;;;;;;18.98;15.93;;;;;;;15.68;96.65;95750.78;2038528;29;20107;-61
2022/06/30 01:06:29;;;;;;;17.85;16.05;;;;;;;15.65;96.35;95747.44;2064234;28;20428;-60
2022/06/30 01:07:30;;;;;;;19.20;16.52;;;;;;;15.59;96.10;95745.25;2057490;28;20093;-59
2022/06/30 01:08:31;;;;;;;18.55;16.48;;;;;;;15.57;96.51;95752.38;2065139;28;20041;-59
2022/06/30 01:13:34;;;;;;;17.83;15.13;;;;;;;15.45;96.93;95742.78;2072749;28;20065;-61
2022/06/30 01:14:36;;;;;;;20.45;15.93;;;;;;;15.48;96.74;95741.75;2065077;28;20042;-61
2022/06/30 01:15:37;;;;;;;20.48;17.10;;;;;;;15.45;97.01;95740.19;2057577;28;20058;-60
2022/06/30 01:16:39;;;;;;;19.98;15.80;;;;;;;15.46;96.52;95741.00;2057690;28;20053;-60
2022/06/30 01:17:41;;;;;;;19.00;16.75;;;;;;;15.47;96.76;95745.28;2065973;28;20046;-60
2022/06/30 01:18:42;;;;;;;18.85;16.25;;;;;;;15.43;96.95;95736.81;2073324;28;20046;-59
2022/06/30 01:19:52;;;;;;;18.88;16.92;;;;;;;15.41;97.06;95736.09;2056894;28;20559;-60
2022/06/30 01:20:54;;;;;;;18.50;16.50;;;;;;;15.44;96.92;95738.47;2067226;28;20101;-61
2022/06/30 01:22:01;;;;;;;17.98;15.85;;;;;;;15.48;97.32;95736.50;2064826;28;20455;-59
2022/06/30 01:23:03;;;;;;;18.80;16.75;;;;;;;15.50;97.17;95739.81;2057705;28;20050;-62
2022/06/30 01:24:04;;;;;;;21.35;17.58;;;;;;;15.47;96.79;95740.88;2065587;28;20049;-61
2022/06/30 01:25:06;;;;;;;20.45;17.75;;;;;;;15.41;96.96;95746.56;2057508;28;20042;-61
2022/06/30 01:26:07;;;;;;;21.10;18.77;;;;;;;15.37;97.29;95747.69;2049278;28;20055;-60
2022/06/30 01:27:09;;;;;;;18.75;16.75;;;;;;;15.35;97.16;95753.06;2053704;28;20043;-61
2022/06/30 01:28:10;;;;;;;22.90;17.50;;;;;;;15.34;96.93;95750.53;2056199;28;20046;-60
2022/06/30 01:29:11;;;;;;;19.70;17.63;;;;;;;15.38;97.14;95752.84;2049442;28;20058;-61
2022/06/30 01:30:12;;;;;;;22.88;18.98;;;;;;;15.34;96.77;95740.06;2056624;28;20572;-62
2022/06/30 01:31:13;;;;;;;25.58;18.65;;;;;;;15.33;98.01;95741.84;2057872;28;20440;-61
2022/06/30 01:32:15;;;;;;;21.40;16.83;;;;;;;15.28;97.35;95741.34;2057543;28;20055;-61
2022/06/30 01:33:16;;;;;;;20.33;18.13;;;;;;;15.31;97.82;95742.91;2057303;28;20057;-60
2022/06/30 01:34:17;;;;;;;19.90;17.38;;;;;;;15.27;97.23;95737.06;2057574;28;20050;-61
2022/06/30 01:35:19;;;;;;;23.13;16.17;;;;;;;15.27;97.47;95736.22;2057121;28;20043;-62
2022/06/30 01:36:20;;;;;;;18.80;15.80;;;;;;;15.34;97.11;95738.31;2056799;28;20050;-61
2022/06/30 01:37:21;;;;;;;20.17;16.98;;;;;;;15.34;97.36;95747.91;2056664;28;20043;-60
2022/06/30 01:38:23;;;;;;;18.45;15.68;;;;;;;15.27;97.15;95731.00;2057523;28;20051;-61
2022/06/30 01:39:24;;;;;;;20.20;16.38;;;;;;;15.29;96.60;95744.78;2057366;28;20051;-61
2022/06/30 01:40:26;;;;;;;17.38;15.57;;;;;;;15.29;97.63;95742.16;2048932;29;20047;-60
2022/06/30 01:41:28;;;;;;;18.15;16.15;;;;;;;15.27;97.03;95744.91;2049523;28;20066;-60
2022/06/30 01:42:30;;;;;;;18.52;15.73;;;;;;;15.26;97.07;95737.97;2065219;28;20071;-61
2022/06/30 01:43:32;;;;;;;17.33;15.35;;;;;;;15.23;96.52;95738.19;2048201;29;20043;-61
2022/06/30 01:44:33;;;;;;;16.58;14.88;;;;;;;15.26;97.33;95743.22;2036760;28;20508;-61
2022/06/30 01:45:34;;;;;;;20.40;16.17;;;;;;;15.26;96.36;95739.78;2048743;28;20047;-60
2022/06/30 01:46:36;;;;;;;20.27;16.45;;;;;;;15.24;96.78;95744.28;2050005;28;20047;-59
2022/06/30 01:47:37;;;;;;;21.65;17.42;;;;;;;15.20;96.18;95743.66;2056783;28;20399;-59
2022/06/30 01:48:39;;;;;;;18.33;15.98;;;;;;;15.19;96.94;95752.47;2065084;28;20042;-60
2022/06/30 01:49:40;;;;;;;19.95;17.85;;;;;;;15.13;96.26;95745.00;2064582;28;20045;-60
2022/06/30 01:50:41;;;;;;;21.33;17.38;;;;;;;15.09;96.74;95744.41;2073536;28;20105;-61
2022/06/30 01:51:43;;;;;;;21.17;17.30;;;;;;;15.06;96.85;95747.22;2064617;28;20482;-61
2022/06/30 01:52:44;;;;;;;19.15;17.10;;;;;;;15.04;97.65;95743.88;2065002;28;20058;-60
2022/06/30 01:53:45;;;;;;;20.95;18.05;;;;;;;15.04;97.09;95741.25;2064785;28;20057;-61
2022/06/30 01:54:47;;;;;;;21.40;16.60;;;;;;;15.04;97.26;95745.66;2057002;28;20042;-61
2022/06/30 01:55:48;;;;;;;22.27;17.67;;;;;;;15.11;97.24;95745.13;2056909;28;20051;-61
2022/06/30 01:56:49;;;;;;;22.77;18.98;;;;;;;15.11;97.31;95739.91;2065421;28;20050;-59
2022/06/30 01:57:50;;;;;;;23.52;18.17;;;;;;;15.13;97.24;95735.41;2072409;28;20050;-61
2022/06/30 01:58:52;;;;;;;23.85;18.48;;;;;;;15.12;97.03;95745.97;2064464;28;20050;-60
2022/06/30 01:59:53;;;;;;;22.55;18.15;;;;;;;15.11;96.60;95737.28;2048941;28;20595;-60
2022/06/30 02:00:54;;;;;;;23.08;18.38;;;;;;;15.09;97.38;95747.00;2056681;28;20051;-60
2022/06/30 02:01:56;;;;;;;18.38;16.45;;;;;;;15.04;97.09;95740.44;2059718;28;20073;-61
2022/06/30 02:02:57;;;;;;;19.63;16.63;;;;;;;15.02;96.98;95737.91;2049547;28;20421;-60
2022/06/30 02:05:20;;;;;;;22.90;18.42;;;;;;;15.01;97.93;95744.09;2072456;28;20038;-60
2022/06/30 02:06:22;;;;;;;23.48;19.45;;;;;;;15.03;98.05;95744.00;2065608;28;20428;-61
2022/06/30 02:07:23;;;;;;;20.50;18.38;;;;;;;15.04;97.83;95746.50;2057415;28;20051;-60
2022/06/30 02:08:24;;;;;;;22.92;18.42;;;;;;;15.09;97.65;95751.41;2064822;28;20511;-61
2022/06/30 02:09:26;;;;;;;21.30;17.88;;;;;;;15.13;97.36;95753.72;2053468;28;20054;-60
2022/06/30 02:10:27;;;;;;;22.50;18.67;;;;;;;15.16;96.64;95755.28;2048668;28;20441;-61
2022/06/30 02:11:28;;;;;;;20.92;18.45;;;;;;;15.16;97.00;95757.91;2056546;28;20536;-61
2022/06/30 02:12:45;;;;;;;18.85;16.20;;;;;;;15.25;96.76;95759.03;2041285;29;20429;-60
2022/06/30 02:13:46;;;;;;;23.77;18.92;;;;;;;15.24;96.30;95760.00;2047205;28;20058;-62
2022/06/30 02:14:47;;;;;;;23.25;18.55;;;;;;;15.14;95.82;95755.38;2056800;28;20046;-61
2022/06/30 02:15:48;;;;;;;21.05;18.52;;;;;;;15.12;96.41;95754.63;2049115;28;20062;-60
2022/06/30 02:16:50;;;;;;;25.50;19.95;;;;;;;15.08;96.12;95753.19;2055980;28;20063;-61
2022/06/30 02:17:53;;;;;;;24.27;18.95;;;;;;;15.06;96.16;95755.06;2056482;28;20050;-61
2022/06/30 02:18:54;;;;;;;20.15;18.13;;;;;;;15.02;97.00;95748.38;2065356;28;20542;-61
2022/06/30 02:19:55;;;;;;;25.35;20.98;;;;;;;15.05;96.46;95756.03;2065040;28;20122;-60
2022/06/30 02:20:58;;;;;;;23.70;18.08;;;;;;;14.99;96.66;95751.19;2048914;29;20051;-59
2022/06/30 02:21:59;;;;;;;23.42;20.33;;;;;;;15.03;97.51;95754.47;2049921;28;20054;-61
2022/06/30 02:23:02;;;;;;;25.30;19.55;;;;;;;15.05;97.41;95749.94;2049005;28;20047;-62
2022/06/30 02:24:03;;;;;;;25.35;20.00;;;;;;;15.06;97.49;95751.63;2041962;28;20050;-61
2022/06/30 02:25:06;;;;;;;20.75;18.58;;;;;;;15.09;96.37;95747.00;2056560;28;20062;-60
2022/06/30 02:26:07;;;;;;;24.88;20.35;;;;;;;15.11;96.54;95749.53;2056569;28;20057;-61
2022/06/30 02:27:08;;;;;;;23.73;18.58;;;;;;;15.11;96.52;95746.91;2065356;28;20551;-60
2022/06/30 02:28:09;;;;;;;22.90;19.08;;;;;;;15.10;96.89;95738.25;2056693;28;20054;-61
2022/06/30 02:29:10;;;;;;;23.73;19.02;;;;;;;15.11;95.70;95744.31;2056844;28;20050;-60
2022/06/30 02:30:12;;;;;;;27.65;20.83;;;;;;;15.06;96.27;95744.63;2056856;28;20053;-60
2022/06/30 02:31:14;;;;;;;24.00;19.63;;;;;;;15.03;96.37;95749.22;2064457;28;20053;-60
2022/06/30 02:32:15;;;;;;;27.15;20.83;;;;;;;14.99;97.03;95748.59;2072390;28;20703;-60
2022/06/30 02:33:17;;;;;;;20.90;18.60;;;;;;;14.95;96.12;95749.75;2072230;28;20045;-60
2022/06/30 02:34:19;;;;;;;24.65;19.08;;;;;;;14.94;96.64;95746.31;2056943;28;20437;-60
2022/06/30 02:35:20;;;;;;;26.45;20.88;;;;;;;14.91;96.73;95743.88;2056579;28;20516;-60
2022/06/30 02:36:21;;;;;;;31.33;20.48;;;;;;;14.91;96.97;95740.44;2057295;28;20058;-60
2022/06/30 02:37:23;;;;;;;27.27;19.67;;;;;;;14.91;96.72;95743.03;2065476;28;20057;-59
2022/06/30 02:38:24;;;;;;;21.92;19.30;;;;;;;14.93;96.34;95738.56;2064578;28;20046;-59
2022/06/30 02:39:25;;;;;;;22.42;19.88;;;;;;;14.89;96.66;95737.06;2048405;28;20456;-61
2022/06/30 02:40:26;;;;;;;26.40;21.40;;;;;;;14.85;96.94;95739.06;2056592;28;20107;-61
2022/06/30 02:41:28;;;;;;;27.38;20.95;;;;;;;14.88;97.20;95740.66;2056767;28;20535;-61
2022/06/30 02:42:29;;;;;;;23.85;19.60;;;;;;;14.85;96.66;95741.69;2065955;28;20046;-59
2022/06/30 02:43:30;;;;;;;26.33;18.65;;;;;;;14.82;97.16;95746.31;2056768;28;20066;-60
2022/06/30 02:44:31;;;;;;;21.90;19.25;;;;;;;14.82;96.80;95747.13;2040966;29;20059;-61
2022/06/30 02:45:33;;;;;;;24.60;19.58;;;;;;;14.83;96.39;95755.81;2040881;28;20510;-60
2022/06/30 02:46:34;;;;;;;25.58;20.90;;;;;;;14.83;97.10;95753.19;2049617;28;20074;-59
2022/06/30 02:47:37;;;;;;;24.92;20.92;;;;;;;14.80;96.84;95750.78;2048209;28;20043;-61
2022/06/30 02:48:38;;;;;;;24.88;19.38;;;;;;;14.76;97.44;95758.84;2048599;28;20547;-60
2022/06/30 02:49:40;;;;;;;23.75;18.85;;;;;;;14.83;96.62;95759.25;2039135;28;20047;-60
2022/06/30 02:50:41;;;;;;;21.92;18.85;;;;;;;14.76;96.86;95758.84;2048834;28;20050;-60
2022/06/30 02:51:42;;;;;;;23.17;18.75;;;;;;;14.74;97.49;95759.88;2057122;28;20084;-61
2022/06/30 02:52:44;;;;;;;25.42;18.73;;;;;;;14.70;97.20;95761.00;2041649;28;20567;-57
2022/06/30 02:53:45;;;;;;;27.63;22.02;;;;;;;14.64;97.00;95754.44;2056481;28;20051;-58
2022/06/30 02:54:46;;;;;;;21.25;18.90;;;;;;;14.65;97.10;95763.97;2064683;28;20061;-59
2022/06/30 02:55:48;;;;;;;22.95;20.42;;;;;;;14.67;97.36;95767.28;2064720;28;20031;-58
2022/06/30 02:56:49;;;;;;;25.17;21.00;;;;;;;14.64;97.41;95766.66;2072742;28;20053;-60
2022/06/30 02:57:50;;;;;;;23.90;20.88;;;;;;;14.71;97.26;95767.94;2064496;28;20050;-60
2022/06/30 02:58:52;;;;;;;25.05;21.92;;;;;;;14.64;97.44;95767.50;2072611;28;20057;-60
2022/06/30 02:59:53;;;;;;;28.90;21.17;;;;;;;14.61;97.34;95765.09;2056177;28;20066;-60
2022/06/30 03:00:54;;;;;;;24.90;20.25;;;;;;;14.60;97.60;95765.22;2049352;28;20051;-61
2022/06/30 03:01:56;;;;;;;28.75;21.83;;;;;;;14.60;97.20;95768.66;2064427;28;20057;-60
2022/06/30 03:02:58;;;;;;;29.25;21.42;;;;;;;14.57;97.84;95766.25;2072068;28;20061;-60
2022/06/30 03:04:02;;;;;;;26.25;19.95;;;;;;;14.51;97.77;95762.25;2072064;28;20045;-59
2022/06/30 03:05:04;;;;;;;22.27;19.98;;;;;;;14.56;97.50;95775.00;2072658;28;20042;-58
2022/06/30 03:06:05;;;;;;;29.23;21.27;;;;;;;14.55;97.37;95766.34;2064173;28;20050;-60
2022/06/30 03:07:07;;;;;;;24.75;19.55;;;;;;;14.57;97.84;95771.47;2056990;28;20073;-59
2022/06/30 03:08:09;;;;;;;25.52;20.38;;;;;;;14.58;98.06;95773.13;2056655;28;20047;-59
2022/06/30 03:09:11;;;;;;;26.77;20.25;;;;;;;14.56;97.56;95775.84;2065073;28;20471;-60
2022/06/30 03:10:12;;;;;;;26.17;19.70;;;;;;;14.55;97.43;95781.19;2056686;28;20416;-60
2022/06/30 03:11:16;;;;;;;28.85;21.20;;;;;;;14.52;97.44;95778.75;2062128;28;20049;-60
2022/06/30 03:12:17;;;;;;;24.25;19.02;;;;;;;14.48;97.32;95780.72;2056679;28;20047;-61
2022/06/30 03:13:19;;;;;;;23.50;19.40;;;;;;;14.49;97.89;95776.34;2064211;28;20042;-62
2022/06/30 03:14:20;;;;;;;24.70;20.48;;;;;;;14.45;97.50;95772.25;2056851;28;20049;-60
2022/06/30 03:15:21;;;;;;;21.58;19.27;;;;;;;14.44;97.59;95775.81;2040929;29;20502;-60
2022/06/30 03:16:23;;;;;;;23.25;18.95;;;;;;;14.47;97.48;95778.22;2056130;28;20055;-60
2022/06/30 03:17:25;;;;;;;22.40;18.15;;;;;;;14.47;97.17;95779.03;2072684;28;20494;-61
2022/06/30 03:18:26;;;;;;;22.10;18.85;;;;;;;14.46;97.59;95784.34;2073263;28;20054;-61
2022/06/30 03:19:27;;;;;;;21.83;18.88;;;;;;;14.46;97.84;95782.59;2071953;28;20053;-61
2022/06/30 03:20:29;;;;;;;21.42;19.02;;;;;;;14.40;97.26;95783.00;2056734;28;20050;-60
2022/06/30 03:21:30;;;;;;;23.25;18.25;;;;;;;14.42;97.53;95788.13;2048300;28;20437;-60
2022/06/30 03:22:31;;;;;;;20.40;18.00;;;;;;;14.46;97.14;95790.44;2056874;28;20053;-61
2022/06/30 03:23:33;;;;;;;22.38;18.10;;;;;;;14.45;97.56;95793.97;2056405;28;20042;-60
2022/06/30 03:24:34;;;;;;;20.23;17.92;;;;;;;14.42;97.16;95788.97;2048462;28;20084;-61
2022/06/30 03:25:35;;;;;;;20.67;17.30;;;;;;;14.42;97.32;95793.34;2040998;28;20050;-61
2022/06/30 03:26:37;;;;;;;19.40;17.23;;;;;;;14.39;97.53;95785.72;2056088;28;20047;-61
2022/06/30 03:27:38;;;;;;;20.98;17.73;;;;;;;14.39;97.61;95793.56;2072120;28;20057;-61
2022/06/30 03:28:39;;;;;;;22.55;18.10;;;;;;;14.40;97.16;95790.00;2072091;28;20226;-60
2022/06/30 03:29:41;;;;;;;18.45;16.38;;;;;;;14.37;97.16;95791.03;2056012;28;20074;-60
2022/06/30 03:30:45;;;;;;;20.88;18.08;;;;;;;14.36;97.41;95794.59;2056868;28;20050;-61
2022/06/30 03:31:46;;;;;;;21.15;18.05;;;;;;;14.36;97.49;95793.75;2057082;28;20050;-60
2022/06/30 03:32:47;;;;;;;21.98;17.92;;;;;;;14.34;97.24;95799.91;2049657;28;20059;-61
2022/06/30 03:33:48;;;;;;;23.02;17.08;;;;;;;14.32;97.16;95793.09;2064509;28;20062;-60
2022/06/30 03:34:50;;;;;;;24.17;20.58;;;;;;;14.37;97.82;95800.66;2063916;28;20551;-61
2022/06/30 03:35:51;;;;;;;22.40;19.85;;;;;;;14.40;98.30;95796.06;2055973;28;20046;-60
2022/06/30 03:36:52;;;;;;;24.08;19.48;;;;;;;14.46;98.05;95794.81;2072419;28;20057;-60
2022/06/30 03:37:54;;;;;;;23.88;18.63;;;;;;;14.48;97.63;95792.94;2061468;28;20054;-60
2022/06/30 03:38:55;;;;;;;24.83;18.50;;;;;;;14.55;97.52;95794.25;2056565;28;20085;-59
2022/06/30 03:39:57;;;;;;;20.67;17.95;;;;;;;14.60;97.17;95800.00;2072507;28;20153;-60
2022/06/30 03:40:58;;;;;;;21.63;18.02;;;;;;;14.63;97.18;95799.81;2064706;28;20068;-60
2022/06/30 03:42:00;;;;;;;21.88;18.75;;;;;;;14.65;97.02;95799.69;2056587;28;20058;-60
2022/06/30 03:43:01;;;;;;;21.10;18.55;;;;;;;14.65;96.24;95799.69;2036204;28;20051;-61
2022/06/30 03:44:02;;;;;;;25.35;17.58;;;;;;;14.61;96.28;95798.22;2055804;28;20053;-61
2022/06/30 03:45:04;;;;;;;22.02;17.42;;;;;;;14.61;96.38;95793.84;2063735;28;20046;-61
2022/06/30 03:46:06;;;;;;;18.10;16.33;;;;;;;14.63;96.17;95807.66;2048842;28;20051;-60
2022/06/30 03:47:07;;;;;;;23.73;17.40;;;;;;;14.63;95.91;95799.81;2025928;29;20052;-61
2022/06/30 03:48:08;;;;;;;22.48;17.15;;;;;;;14.66;96.07;95804.81;2041102;28;20056;-59
2022/06/30 03:49:10;;;;;;;22.85;15.52;;;;;;;14.69;96.32;95799.38;2072205;28;20050;-60
2022/06/30 03:50:11;;;;;;;22.83;16.42;;;;;;;14.70;96.02;95798.47;2056535;28;20067;-60
2022/06/30 03:51:12;;;;;;;20.17;15.63;;;;;;;14.71;95.93;95799.31;2066621;28;20053;-60
2022/06/30 03:52:14;;;;;;;22.65;15.77;;;;;;;14.73;95.32;95798.25;2063858;28;20047;-61
2022/06/30 03:53:15;;;;;;;21.63;16.38;;;;;;;14.71;95.79;95805.34;2056594;28;20062;-60
2022/06/30 03:54:19;;;;;;;20.80;15.88;;;;;;;14.73;95.90;95805.28;2056324;28;20055;-61
2022/06/30 03:55:20;;;;;;;20.13;16.80;;;;;;;14.75;94.79;95798.13;2064394;28;20492;-60
2022/06/30 03:56:23;;;;;;;19.15;16.30;;;;;;;14.76;94.84;95794.59;2064400;28;20038;-60
2022/06/30 03:57:24;;;;;;;17.52;15.52;;;;;;;14.80;95.19;95801.28;2064570;28;20050;-60
2022/06/30 03:58:25;;;;;;;19.95;15.80;;;;;;;14.78;95.29;95797.94;2064264;28;20458;-61
2022/06/30 03:59:26;;;;;;;19.40;16.35;;;;;;;14.76;95.28;95799.84;2064124;28;20050;-61
2022/06/30 04:00:28;;;;;;;18.98;15.52;;;;;;;14.78;94.98;95795.31;2056022;28;20551;-61
2022/06/30 04:01:29;;;;;;;21.10;14.68;;;;;;;14.85;94.12;95796.59;2053490;28;20365;-61
2022/06/30 04:02:30;;;;;;;20.45;13.75;;;;;;;14.88;93.88;95796.38;2056491;28;20046;-59
2022/06/30 04:03:31;;;;;;;18.98;14.07;;;;;;;14.90;93.98;95796.28;2065031;28;20049;-60
2022/06/30 04:04:33;;;;;;;24.25;15.02;;;;;;;14.87;93.92;95804.34;2064085;28;20054;-60
2022/06/30 04:05:34;;;;;;;19.30;14.00;;;;;;;14.86;93.52;95800.03;2056990;28;20529;-60
2022/06/30 04:06:35;;;;;;;20.42;13.32;;;;;;;14.91;93.69;95808.41;2048013;28;20493;-62
2022/06/30 04:07:40;;;;;;;17.95;13.85;;;;;;;14.91;93.45;95795.34;2055752;28;20058;-60
2022/06/30 04:08:42;;;;;;;17.95;13.15;;;;;;;14.97;93.52;95800.16;2071725;28;20072;-61
2022/06/30 04:09:43;;;;;;;17.92;14.02;;;;;;;14.83;92.94;95776.72;2072166;28;20049;-59
2022/06/30 04:10:44;;;;;;;16.50;12.75;;;;;;;15.03;92.69;95796.28;2064488;28;20050;-60
2022/06/30 04:11:46;;;;;;;26.00;12.52;;;;;;;15.12;91.92;95796.50;2056836;28;20053;-61
2022/06/30 04:12:47;;;;;;;13.68;11.20;;;;;;;15.20;91.74;95801.19;2056655;28;20050;-60
2022/06/30 04:13:48;;;;;;;15.43;11.45;;;;;;;15.28;90.78;95793.66;2064271;28;20055;-60
2022/06/30 04:14:49;;;;;;;16.83;11.93;;;;;;;15.19;91.32;95797.75;2071801;28;20532;-60
2022/06/30 04:15:50;;;;;;;16.73;11.43;;;;;;;15.17;91.42;95796.19;2064847;28;20042;-60
2022/06/30 04:16:52;;;;;;;14.25;11.75;;;;;;;15.19;90.94;95796.91;2057750;28;20043;-62
2022/06/30 04:17:53;;;;;;;16.65;11.65;;;;;;;15.23;90.72;95793.13;2058347;28;20066;-59
2022/06/30 04:18:54;;;;;;;20.25;11.85;;;;;;;15.22;90.70;95794.09;2057830;28;20058;-60
2022/06/30 04:19:56;;;;;;;18.23;12.88;;;;;;;15.18;91.10;95796.09;2065684;28;20520;-60
2022/06/30 04:20:57;;;;;;;15.75;11.27;;;;;;;15.21;90.81;95793.25;2073702;28;20066;-60
2022/06/30 04:21:58;;;;;;;17.80;11.65;;;;;;;15.21;91.28;95798.50;2065794;28;20046;-61
2022/06/30 04:22:59;;;;;;;15.88;11.45;;;;;;;15.20;nan;95796.78;2074005;28;20065;-60
2022/06/30 04:24:01;;;;;;;16.45;11.57;;;;;;;15.24;90.89;95789.59;2065635;28;20046;-60
2022/06/30 04:25:02;;;;;;;12.80;10.85;;;;;;;15.31;90.34;95792.59;2049452;28;20082;-60
2022/06/30 04:26:03;;;;;;;17.27;11.80;;;;;;;15.29;90.09;95792.72;2045792;29;20120;-60
2022/06/30 04:27:05;;;;;;;14.52;11.02;;;;;;;15.33;89.70;95793.34;2058371;28;20539;-60
2022/06/30 04:28:06;;;;;;;15.85;10.65;;;;;;;15.35;89.79;95787.06;2065067;28;20058;-62
2022/06/30 04:29:07;;;;;;;16.33;11.57;;;;;;;15.38;90.70;95786.03;2065503;28;20042;-58
2022/06/30 04:30:09;;;;;;;17.17;10.57;;;;;;;15.40;90.73;95792.00;2073520;28;20496;-60
2022/06/30 04:33:40;;;;;;;22.05;11.30;;;;;;;15.37;90.61;95792.19;2066754;28;20512;-59
2022/06/30 04:34:41;;;;;;;14.55;10.35;;;;;;;15.41;90.03;95788.41;2059070;28;20066;-60
2022/06/30 04:35:42;;;;;;;20.13;11.73;;;;;;;15.38;89.87;95786.03;2057836;28;20058;-61
2022/06/30 04:36:44;;;;;;;18.38;11.73;;;;;;;15.39;90.04;95785.06;2049901;29;20433;-60
2022/06/30 04:37:45;;;;;;;16.27;10.95;;;;;;;15.51;90.49;95789.44;2049808;28;20062;-60
2022/06/30 04:38:46;;;;;;;13.90;10.98;;;;;;;15.55;89.79;95785.66;2065014;28;20055;-60
2022/06/30 04:39:47;;;;;;;13.15;11.02;;;;;;;15.59;89.39;95781.91;2064820;28;20046;-60
2022/06/30 04:42:08;;;;;;;14.52;10.27;;;;;;;15.66;88.86;95792.75;2062272;28;20047;-58
2022/06/30 04:43:09;;;;;;;17.10;10.50;;;;;;;15.68;88.85;95785.63;2076565;28;20057;-60
2022/06/30 04:44:10;;;;;;;15.90;10.18;;;;;;;15.71;88.84;95787.22;2065434;28;20050;-60
2022/06/30 04:45:12;;;;;;;14.68;10.65;;;;;;;15.78;89.46;95791.09;2066306;28;20058;-60
2022/06/30 04:46:13;;;;;;;21.50;10.93;;;;;;;15.76;88.73;95793.81;2074227;28;20660;-60
2022/06/30 04:47:14;;;;;;;13.85;10.45;;;;;;;15.83;88.81;95789.00;2073313;28;20038;-59
2022/06/30 04:48:15;;;;;;;11.82;10.60;;;;;;;15.86;88.04;95791.38;2073123;28;20432;-60
2022/06/30 04:49:16;;;;;;;15.27;10.25;;;;;;;15.91;88.83;95791.91;2065064;28;20046;-60
2022/06/30 04:50:18;;;;;;;13.55;10.10;;;;;;;16.00;87.07;95785.16;2057146;28;20051;-60
2022/06/30 04:51:19;;;;;;;14.85;9.63;;;;;;;15.87;87.40;95769.47;2065616;28;20046;-59
2022/06/30 04:52:20;;;;;;;21.35;10.75;;;;;;;16.01;88.29;95792.06;2079757;23;20046;-77